Time,TemperatureF,DewpointF,PressureIn,WindDirection,WindDirectionDegrees,WindSpeedMPH,WindSpeedGustMPH,Humidity,HourlyPrecipIn,Conditions,Clouds,dailyrainin,SoftwareType,DateUTC
2013-02-28 00:14:00,32.4,26.9,30.06,NNW,337,3.7,-999.0,80,-99.99,,,0.00,Acu-Link.com,2013-02-28 06:14:00,
2013-02-28 00:29:00,32.2,26.4,30.07,WNW,292,7.3,-999.0,79,-99.99,,,0.00,Acu-Link.com,2013-02-28 06:29:00,
2013-02-28 00:44:00,32.0,25.9,30.07,NE,45,5.8,-999.0,78,-99.99,,,0.00,Acu-Link.com,2013-02-28 06:44:00,
2013-02-28 00:59:00,31.8,25.7,30.07,West,270,3.7,-999.0,78,-99.99,,,0.00,Acu-Link.com,2013-02-28 06:59:00,
2013-02-28 01:14:00,31.6,25.8,30.07,North,0,4.7,-999.0,79,-99.99,,,0.00,Acu-Link.com,2013-02-28 07:14:00,
2013-02-28 01:30:00,31.3,25.6,30.07,NNW,337,6.8,-999.0,79,-99.99,,,0.00,Acu-Link.com,2013-02-28 07:30:00,
2013-02-28 01:45:00,31.1,25.4,30.07,West,270,6.8,-999.0,79,-99.99,,,0.00,Acu-Link.com,2013-02-28 07:45:00,
2013-02-28 02:00:00,30.9,25.5,30.07,South,180,3.7,-999.0,80,-99.99,,,0.00,Acu-Link.com,2013-02-28 08:00:00,
2013-02-28 02:15:00,30.0,24.6,30.08,SSE,157,6.3,-999.0,80,-99.99,,,0.00,Acu-Link.com,2013-02-28 08:15:00,
2013-02-28 02:30:00,29.7,24.6,30.08,West,270,4.2,-999.0,81,-99.99,,,0.00,Acu-Link.com,2013-02-28 08:30:00,
2013-02-28 02:46:00,29.3,24.5,30.09,NNW,337,2.7,-999.0,82,-99.99,,,0.00,Acu-Link.com,2013-02-28 08:46:00,
2013-02-28 03:01:00,29.1,24.3,30.08,WNW,292,6.8,-999.0,82,-99.99,,,0.00,Acu-Link.com,2013-02-28 09:01:00,
2013-02-28 03:19:00,28.9,24.1,30.08,NNE,22,4.7,-999.0,82,-99.99,,,0.00,Acu-Link.com,2013-02-28 09:19:00,
2013-02-28 03:34:00,28.8,24.3,30.09,NW,315,3.2,-999.0,83,-99.99,,,0.00,Acu-Link.com,2013-02-28 09:34:00,
2013-02-28 03:49:00,28.8,24.3,30.09,West,270,4.2,-999.0,83,-99.99,,,0.00,Acu-Link.com,2013-02-28 09:49:00,
2013-02-28 04:05:00,28.8,24.3,30.09,SSE,157,4.7,-999.0,83,-99.99,,,0.00,Acu-Link.com,2013-02-28 10:05:00,
2013-02-28 04:20:00,28.8,24.3,30.10,NNE,22,7.8,-999.0,83,-99.99,,,0.00,Acu-Link.com,2013-02-28 10:20:00,
2013-02-28 04:35:00,28.8,24.3,30.10,West,270,4.2,-999.0,83,-99.99,,,0.00,Acu-Link.com,2013-02-28 10:35:00,
2013-02-28 04:50:00,28.8,24.3,30.10,West,270,5.8,-999.0,83,-99.99,,,0.00,Acu-Link.com,2013-02-28 10:50:00,
2013-02-28 05:05:00,28.6,24.1,30.11,NNW,337,8.3,-999.0,83,-99.99,,,0.00,Acu-Link.com,2013-02-28 11:05:00,
2013-02-28 05:21:00,28.4,23.9,30.11,SE,135,3.7,-999.0,83,-99.99,,,0.00,Acu-Link.com,2013-02-28 11:21:00,
2013-02-28 05:36:00,28.4,23.9,30.13,West,270,4.2,-999.0,83,-99.99,,,0.00,Acu-Link.com,2013-02-28 11:36:00,
2013-02-28 05:51:00,28.4,23.9,30.12,NNE,22,6.3,-999.0,83,-99.99,,,0.00,Acu-Link.com,2013-02-28 11:51:00,
2013-02-28 06:06:00,28.2,23.7,30.11,WNW,292,5.8,-999.0,83,-99.99,,,0.00,Acu-Link.com,2013-02-28 12:06:00,
2013-02-28 06:21:00,27.7,23.2,30.13,NNE,22,3.7,-999.0,83,-99.99,,,0.00,Acu-Link.com,2013-02-28 12:21:00,
2013-02-28 06:37:00,27.7,22.9,30.13,WSW,247,4.2,-999.0,82,-99.99,,,0.00,Acu-Link.com,2013-02-28 12:37:00,
2013-02-28 06:52:00,27.5,23.0,30.13,West,270,3.2,-999.0,83,-99.99,,,0.00,Acu-Link.com,2013-02-28 12:52:00,
2013-02-28 07:07:00,27.7,23.5,30.13,SSW,202,3.2,-999.0,84,-99.99,,,0.00,Acu-Link.com,2013-02-28 13:07:00,
2013-02-28 07:23:00,27.7,23.5,30.14,North,0,5.8,-999.0,84,-99.99,,,0.00,Acu-Link.com,2013-02-28 13:23:00,
2013-02-28 07:38:00,27.5,23.0,30.14,West,270,5.3,-999.0,83,-99.99,,,0.00,Acu-Link.com,2013-02-28 13:38:00,
2013-02-28 07:53:00,27.5,23.0,30.14,West,270,3.2,-999.0,83,-99.99,,,0.00,Acu-Link.com,2013-02-28 13:53:00,
2013-02-28 08:08:00,27.7,23.2,30.16,NNE,22,3.7,-999.0,83,-99.99,,,0.00,Acu-Link.com,2013-02-28 14:08:00,
2013-02-28 08:23:00,27.9,23.4,30.15,WNW,292,2.7,-999.0,83,-99.99,,,0.00,Acu-Link.com,2013-02-28 14:23:00,
2013-02-28 08:39:00,28.2,23.7,30.16,East,90,3.2,-999.0,83,-99.99,,,0.00,Acu-Link.com,2013-02-28 14:39:00,
2013-02-28 08:54:00,28.4,23.6,30.16,West,270,3.7,-999.0,82,-99.99,,,0.00,Acu-Link.com,2013-02-28 14:54:00,
2013-02-28 09:09:00,28.6,23.8,30.16,SW,225,3.7,-999.0,82,-99.99,,,0.00,Acu-Link.com,2013-02-28 15:09:00,
2013-02-28 09:24:00,28.9,23.8,30.16,West,270,4.7,-999.0,81,-99.99,,,0.00,Acu-Link.com,2013-02-28 15:24:00,
2013-02-28 09:39:00,28.9,23.8,30.16,West,270,3.2,-999.0,81,-99.99,,,0.00,Acu-Link.com,2013-02-28 15:39:00,
2013-02-28 09:55:00,29.7,24.3,30.17,WNW,292,4.2,-999.0,80,-99.99,,,0.00,Acu-Link.com,2013-02-28 15:55:00,
2013-02-28 10:10:00,30.4,24.7,30.17,NNW,337,5.3,-999.0,79,-99.99,,,0.00,Acu-Link.com,2013-02-28 16:10:00,
2013-02-28 10:25:00,31.1,24.7,30.17,SSW,202,3.7,-999.0,77,-99.99,,,0.00,Acu-Link.com,2013-02-28 16:25:00,
2013-02-28 10:40:00,31.6,24.9,30.18,NNE,22,4.2,-999.0,76,-99.99,,,0.00,Acu-Link.com,2013-02-28 16:40:00,
2013-02-28 10:55:00,31.8,24.8,30.18,West,270,2.7,-999.0,75,-99.99,,,0.00,Acu-Link.com,2013-02-28 16:55:00,
2013-02-28 11:11:00,31.8,24.8,30.18,West,270,10.4,-999.0,75,-99.99,,,0.00,Acu-Link.com,2013-02-28 17:11:00,
2013-02-28 11:26:00,31.8,24.8,30.20,West,270,2.7,-999.0,75,-99.99,,,0.00,Acu-Link.com,2013-02-28 17:26:00,
2013-02-28 11:41:00,32.4,25.1,30.20,South,180,4.7,-999.0,74,-99.99,,,0.00,Acu-Link.com,2013-02-28 17:41:00,
2013-02-28 11:56:00,32.5,25.2,30.19,North,0,4.7,-999.0,74,-99.99,,,0.00,Acu-Link.com,2013-02-28 17:56:00,
2013-02-28 12:12:00,32.5,25.2,30.19,SSW,202,3.2,-999.0,74,-99.99,,,0.00,Acu-Link.com,2013-02-28 18:12:00,
2013-02-28 12:27:00,32.7,25.7,30.19,ESE,112,2.7,-999.0,75,-99.99,,,0.00,Acu-Link.com,2013-02-28 18:27:00,
2013-02-28 12:42:00,33.1,26.1,30.19,North,0,3.2,-999.0,75,-99.99,,,0.00,Acu-Link.com,2013-02-28 18:42:00,
2013-02-28 12:57:00,33.8,26.1,30.18,North,0,3.2,-999.0,73,-99.99,,,0.00,Acu-Link.com,2013-02-28 18:57:00,
2013-02-28 13:12:00,34.2,26.5,30.17,NNW,337,5.8,-999.0,73,-99.99,,,0.00,Acu-Link.com,2013-02-28 19:12:00,
2013-02-28 13:28:00,33.8,25.7,30.17,SSW,202,3.7,-999.0,72,-99.99,,,0.00,Acu-Link.com,2013-02-28 19:28:00,
2013-02-28 13:43:00,33.6,25.6,30.16,NNW,337,3.7,-999.0,72,-99.99,,,0.00,Acu-Link.com,2013-02-28 19:43:00,
2013-02-28 13:58:00,33.6,26.2,30.16,NNW,337,5.3,-999.0,74,-99.99,,,0.00,Acu-Link.com,2013-02-28 19:58:00,
2013-02-28 14:13:00,34.0,25.9,30.16,SW,225,2.2,-999.0,72,-99.99,,,0.00,Acu-Link.com,2013-02-28 20:13:00,
2013-02-28 14:28:00,34.5,26.4,30.16,South,180,2.7,-999.0,72,-99.99,,,0.00,Acu-Link.com,2013-02-28 20:28:00,
2013-02-28 14:44:00,34.3,26.2,30.16,WNW,292,2.7,-999.0,72,-99.99,,,0.00,Acu-Link.com,2013-02-28 20:44:00,
2013-02-28 14:59:00,34.3,25.9,30.16,NNW,337,2.2,-999.0,71,-99.99,,,0.00,Acu-Link.com,2013-02-28 20:59:00,
2013-02-28 15:14:00,34.2,26.1,30.15,NNE,22,3.7,-999.0,72,-99.99,,,0.00,Acu-Link.com,2013-02-28 21:14:00,
2013-02-28 15:29:00,34.0,25.9,30.15,WNW,292,2.2,-999.0,72,-99.99,,,0.00,Acu-Link.com,2013-02-28 21:29:00,
2013-02-28 15:44:00,34.2,25.8,30.15,NNW,337,2.7,-999.0,71,-99.99,,,0.00,Acu-Link.com,2013-02-28 21:44:00,
2013-02-28 16:00:00,33.8,25.7,30.15,North,0,5.8,-999.0,72,-99.99,,,0.00,Acu-Link.com,2013-02-28 22:00:00,
2013-02-28 16:15:00,33.6,25.2,30.16,NNE,22,3.7,-999.0,71,-99.99,,,0.00,Acu-Link.com,2013-02-28 22:15:00,
2013-02-28 16:30:00,33.3,25.3,30.16,NNW,337,4.2,-999.0,72,-99.99,,,0.00,Acu-Link.com,2013-02-28 22:30:00,
2013-02-28 16:46:00,33.1,25.1,30.16,WNW,292,6.3,-999.0,72,-99.99,,,0.00,Acu-Link.com,2013-02-28 22:46:00,
2013-02-28 17:01:00,32.5,24.8,30.15,ESE,112,5.3,-999.0,73,-99.99,,,0.00,Acu-Link.com,2013-02-28 23:01:00,
2013-02-28 17:16:00,30.2,22.9,30.16,ESE,112,2.2,-999.0,74,-99.99,,,0.00,Acu-Link.com,2013-02-28 23:16:00,
2013-02-28 17:31:00,31.5,24.8,30.16,West,270,3.7,-999.0,76,-99.99,,,0.00,Acu-Link.com,2013-02-28 23:31:00,
2013-02-28 17:46:00,30.6,24.9,30.17,NW,315,2.7,-999.0,79,-99.99,,,0.00,Acu-Link.com,2013-02-28 23:46:00,
2013-02-28 18:02:00,30.4,24.1,30.17,SE,135,2.7,-999.0,77,-99.99,,,0.00,Acu-Link.com,2013-03-01 00:02:00,
2013-02-28 18:19:00,29.8,23.5,30.17,SSE,157,2.7,-999.0,77,-99.99,,,0.00,Acu-Link.com,2013-03-01 00:19:00,
2013-02-28 18:34:00,29.5,23.2,30.18,WSW,247,4.7,-999.0,77,-99.99,,,0.00,Acu-Link.com,2013-03-01 00:34:00,
2013-02-28 18:49:00,28.8,22.5,30.18,ESE,112,4.7,-999.0,77,-99.99,,,0.00,Acu-Link.com,2013-03-01 00:49:00,
2013-02-28 19:04:00,28.6,22.6,30.18,SE,135,2.7,-999.0,78,-99.99,,,0.00,Acu-Link.com,2013-03-01 01:04:00,
2013-02-28 19:24:00,27.9,22.5,30.19,South,180,6.3,-999.0,80,-99.99,,,0.00,Acu-Link.com,2013-03-01 01:24:00,
2013-02-28 19:43:00,27.3,22.0,30.20,West,270,2.7,-999.0,80,-99.99,,,0.00,Acu-Link.com,2013-03-01 01:43:00,
2013-02-28 19:58:00,27.1,21.8,30.21,SSE,157,2.2,-999.0,80,-99.99,,,0.00,Acu-Link.com,2013-03-01 01:58:00,
2013-02-28 20:13:00,27.0,21.7,30.21,East,90,3.2,-999.0,80,-99.99,,,0.00,Acu-Link.com,2013-03-01 02:13:00,
2013-02-28 20:29:00,27.0,21.7,30.20,West,270,3.2,-999.0,80,-99.99,,,0.00,Acu-Link.com,2013-03-01 02:29:00,
2013-02-28 20:44:00,26.8,21.5,30.20,SSW,202,2.7,-999.0,80,-99.99,,,0.00,Acu-Link.com,2013-03-01 02:44:00,
2013-02-28 20:59:00,26.6,21.0,30.20,South,180,2.7,-999.0,79,-99.99,,,0.00,Acu-Link.com,2013-03-01 02:59:00,
2013-02-28 21:14:00,26.6,21.0,30.21,SSE,157,2.7,-999.0,79,-99.99,,,0.00,Acu-Link.com,2013-03-01 03:14:00,
2013-02-28 21:29:00,26.6,21.0,30.22,South,180,3.7,-999.0,79,-99.99,,,0.00,Acu-Link.com,2013-03-01 03:29:00,
2013-02-28 21:45:00,26.6,21.0,30.20,West,270,3.2,-999.0,79,-99.99,,,0.00,Acu-Link.com,2013-03-01 03:45:00,
2013-02-28 22:00:00,26.4,20.8,30.21,South,180,7.3,-999.0,79,-99.99,,,0.00,Acu-Link.com,2013-03-01 04:00:00,
2013-02-28 22:15:00,26.4,20.8,30.20,South,180,2.7,-999.0,79,-99.99,,,0.00,Acu-Link.com,2013-03-01 04:15:00,
2013-02-28 22:30:00,26.2,20.9,30.20,SW,225,2.7,-999.0,80,-99.99,,,0.00,Acu-Link.com,2013-03-01 04:30:00,
2013-02-28 22:46:00,26.2,20.9,30.19,SE,135,4.7,-999.0,80,-99.99,,,0.00,Acu-Link.com,2013-03-01 04:46:00,
2013-02-28 23:01:00,26.2,20.6,30.20,ESE,112,2.7,-999.0,79,-99.99,,,0.00,Acu-Link.com,2013-03-01 05:01:00,
2013-02-28 23:16:00,26.2,20.6,30.19,ESE,112,2.7,-999.0,79,-99.99,,,0.00,Acu-Link.com,2013-03-01 05:16:00,
2013-02-28 23:31:00,26.1,20.8,30.19,SW,225,3.7,-999.0,80,-99.99,,,0.00,Acu-Link.com,2013-03-01 05:31:00,
2013-02-28 23:46:00,26.1,20.8,30.19,North,0,5.8,-999.0,80,-99.99,,,0.00,Acu-Link.com,2013-03-01 05:46:00,